sensor_id;sensor_type;location;lat;lon;timestamp;P1;durP1;ratioP1;P2;durP2;ratioP2
5414;SDS011;2730;51.512;7.504;2023-03-01T00:00:01;13.68;;;6.32;;
5414;SDS011;2730;51.512;7.504;2023-03-01T00:02:29;13.07;;;5.95;;
5414;SDS011;2730;51.512;7.504;2023-03-01T00:04:56;14.20;;;6.93;;
5414;SDS011;2730;51.512;7.504;2023-03-01T00:07:24;13.80;;;6.60;;
5414;SDS011;2730;51.512;7.504;2023-03-01T00:09:50;9.85;;;6.80;;
5414;SDS011;2730;51.512;7.504;2023-03-01T00:12:17;12.70;;;6.40;;
5414;SDS011;2730;51.512;7.504;2023-03-01T00:14:44;12.95;;;6.65;;
5414;SDS011;2730;51.512;7.504;2023-03-01T00:17:11;9.60;;;6.50;;
5414;SDS011;2730;51.512;7.504;2023-03-01T00:19:38;8.07;;;5.75;;
5414;SDS011;2730;51.512;7.504;2023-03-01T00:22:04;9.57;;;5.85;;
5414;SDS011;2730;51.512;7.504;2023-03-01T00:24:33;9.60;;;6.07;;
5414;SDS011;2730;51.512;7.504;2023-03-01T00:26:59;9.63;;;5.38;;
5414;SDS011;2730;51.512;7.504;2023-03-01T00:29:26;8.55;;;6.30;;
5414;SDS011;2730;51.512;7.504;2023-03-01T00:31:53;22.38;;;6.28;;
5414;SDS011;2730;51.512;7.504;2023-03-01T00:34:20;11.50;;;5.72;;
5414;SDS011;2730;51.512;7.504;2023-03-01T00:36:47;10.93;;;6.00;;
5414;SDS011;2730;51.512;7.504;2023-03-01T00:39:14;9.18;;;6.20;;
5414;SDS011;2730;51.512;7.504;2023-03-01T00:41:42;10.77;;;6.47;;
5414;SDS011;2730;51.512;7.504;2023-03-01T00:44:09;10.07;;;6.68;;
5414;SDS011;2730;51.512;7.504;2023-03-01T00:46:36;11.70;;;6.20;;
5414;SDS011;2730;51.512;7.504;2023-03-01T00:49:03;9.13;;;6.40;;
5414;SDS011;2730;51.512;7.504;2023-03-01T00:51:30;9.57;;;6.25;;
5414;SDS011;2730;51.512;7.504;2023-03-01T00:53:58;11.07;;;6.38;;
5414;SDS011;2730;51.512;7.504;2023-03-01T00:56:26;13.30;;;6.63;;
5414;SDS011;2730;51.512;7.504;2023-03-01T00:58:55;13.82;;;7.47;;
5414;SDS011;2730;51.512;7.504;2023-03-01T01:01:22;10.07;;;5.88;;
5414;SDS011;2730;51.512;7.504;2023-03-01T01:03:53;15.90;;;6.75;;
5414;SDS011;2730;51.512;7.504;2023-03-01T01:06:22;10.02;;;6.43;;
5414;SDS011;2730;51.512;7.504;2023-03-01T01:08:50;15.48;;;6.10;;
5414;SDS011;2730;51.512;7.504;2023-03-01T01:11:18;11.02;;;6.88;;
5414;SDS011;2730;51.512;7.504;2023-03-01T01:13:45;10.25;;;5.68;;
5414;SDS011;2730;51.512;7.504;2023-03-01T01:16:15;10.77;;;6.80;;
5414;SDS011;2730;51.512;7.504;2023-03-01T01:18:43;11.82;;;6.70;;
5414;SDS011;2730;51.512;7.504;2023-03-01T01:21:10;14.05;;;6.20;;
5414;SDS011;2730;51.512;7.504;2023-03-01T01:23:39;12.55;;;6.43;;
5414;SDS011;2730;51.512;7.504;2023-03-01T01:26:07;13.15;;;6.50;;
5414;SDS011;2730;51.512;7.504;2023-03-01T01:28:35;10.25;;;7.20;;
5414;SDS011;2730;51.512;7.504;2023-03-01T01:31:02;11.10;;;6.63;;
5414;SDS011;2730;51.512;7.504;2023-03-01T01:33:30;11.25;;;6.32;;
5414;SDS011;2730;51.512;7.504;2023-03-01T01:35:57;12.88;;;6.72;;
5414;SDS011;2730;51.512;7.504;2023-03-01T01:38:24;13.77;;;7.32;;
5414;SDS011;2730;51.512;7.504;2023-03-01T01:40:51;8.95;;;5.95;;
5414;SDS011;2730;51.512;7.504;2023-03-01T01:43:19;11.07;;;5.97;;
5414;SDS011;2730;51.512;7.504;2023-03-01T01:45:47;12.60;;;6.70;;
5414;SDS011;2730;51.512;7.504;2023-03-01T01:48:16;9.35;;;6.45;;
5414;SDS011;2730;51.512;7.504;2023-03-01T01:50:47;12.60;;;7.10;;
5414;SDS011;2730;51.512;7.504;2023-03-01T01:53:20;11.90;;;7.93;;
5414;SDS011;2730;51.512;7.504;2023-03-01T01:55:49;13.05;;;7.80;;
5414;SDS011;2730;51.512;7.504;2023-03-01T01:58:19;14.30;;;7.35;;
5414;SDS011;2730;51.512;7.504;2023-03-01T02:00:47;12.70;;;7.13;;
5414;SDS011;2730;51.512;7.504;2023-03-01T02:03:17;10.30;;;6.82;;
5414;SDS011;2730;51.512;7.504;2023-03-01T02:05:50;11.93;;;6.63;;
5414;SDS011;2730;51.512;7.504;2023-03-01T02:08:23;13.27;;;6.18;;
5414;SDS011;2730;51.512;7.504;2023-03-01T02:10:52;9.27;;;6.05;;
5414;SDS011;2730;51.512;7.504;2023-03-01T02:13:20;10.50;;;5.40;;
5414;SDS011;2730;51.512;7.504;2023-03-01T02:15:48;20.50;;;6.70;;
5414;SDS011;2730;51.512;7.504;2023-03-01T02:18:16;10.15;;;6.15;;
5414;SDS011;2730;51.512;7.504;2023-03-01T02:20:48;9.48;;;6.25;;
5414;SDS011;2730;51.512;7.504;2023-03-01T02:23:25;15.75;;;7.20;;
5414;SDS011;2730;51.512;7.504;2023-03-01T02:25:54;11.48;;;6.18;;
5414;SDS011;2730;51.512;7.504;2023-03-01T02:28:27;10.07;;;5.65;;
5414;SDS011;2730;51.512;7.504;2023-03-01T02:30:56;11.32;;;6.38;;
5414;SDS011;2730;51.512;7.504;2023-03-01T02:33:41;13.90;;;6.30;;
5414;SDS011;2730;51.512;7.504;2023-03-01T02:36:09;8.90;;;6.57;;
5414;SDS011;2730;51.512;7.504;2023-03-01T02:38:39;10.05;;;6.90;;
5414;SDS011;2730;51.512;7.504;2023-03-01T02:41:06;17.20;;;6.95;;
5414;SDS011;2730;51.512;7.504;2023-03-01T02:43:35;10.07;;;6.25;;
5414;SDS011;2730;51.512;7.504;2023-03-01T02:46:05;15.85;;;6.50;;
5414;SDS011;2730;51.512;7.504;2023-03-01T02:48:40;13.95;;;6.75;;
5414;SDS011;2730;51.512;7.504;2023-03-01T02:51:11;8.23;;;6.30;;
5414;SDS011;2730;51.512;7.504;2023-03-01T02:54:05;11.52;;;6.05;;
5414;SDS011;2730;51.512;7.504;2023-03-01T02:56:38;13.93;;;6.50;;
5414;SDS011;2730;51.512;7.504;2023-03-01T02:59:07;7.78;;;5.50;;
5414;SDS011;2730;51.512;7.504;2023-03-01T03:01:34;13.93;;;6.55;;
5414;SDS011;2730;51.512;7.504;2023-03-01T03:04:03;10.60;;;6.80;;
5414;SDS011;2730;51.512;7.504;2023-03-01T03:06:31;15.60;;;6.38;;
5414;SDS011;2730;51.512;7.504;2023-03-01T03:08:58;12.88;;;6.60;;
5414;SDS011;2730;51.512;7.504;2023-03-01T03:11:24;14.93;;;7.40;;
5414;SDS011;2730;51.512;7.504;2023-03-01T03:13:51;11.27;;;6.50;;
5414;SDS011;2730;51.512;7.504;2023-03-01T03:16:20;15.10;;;6.30;;
5414;SDS011;2730;51.512;7.504;2023-03-01T03:18:47;8.85;;;5.82;;
5414;SDS011;2730;51.512;7.504;2023-03-01T03:21:14;12.13;;;6.75;;
5414;SDS011;2730;51.512;7.504;2023-03-01T03:23:42;15.10;;;6.40;;
5414;SDS011;2730;51.512;7.504;2023-03-01T03:26:09;17.83;;;5.90;;
5414;SDS011;2730;51.512;7.504;2023-03-01T03:28:38;9.52;;;5.95;;
5414;SDS011;2730;51.512;7.504;2023-03-01T03:31:05;13.63;;;7.20;;
5414;SDS011;2730;51.512;7.504;2023-03-01T03:33:34;13.77;;;6.88;;
5414;SDS011;2730;51.512;7.504;2023-03-01T03:36:01;18.45;;;7.10;;
5414;SDS011;2730;51.512;7.504;2023-03-01T03:38:28;12.95;;;7.22;;
5414;SDS011;2730;51.512;7.504;2023-03-01T03:40:59;13.85;;;7.35;;
5414;SDS011;2730;51.512;7.504;2023-03-01T03:43:28;15.95;;;7.10;;
5414;SDS011;2730;51.512;7.504;2023-03-01T03:45:56;13.57;;;6.93;;
5414;SDS011;2730;51.512;7.504;2023-03-01T03:48:23;13.75;;;7.53;;
5414;SDS011;2730;51.512;7.504;2023-03-01T03:50:53;11.90;;;7.65;;
5414;SDS011;2730;51.512;7.504;2023-03-01T03:53:21;10.77;;;7.45;;
5414;SDS011;2730;51.512;7.504;2023-03-01T03:55:49;12.25;;;6.00;;
5414;SDS011;2730;51.512;7.504;2023-03-01T03:58:16;12.88;;;6.88;;
5414;SDS011;2730;51.512;7.504;2023-03-01T04:00:44;15.73;;;7.72;;
5414;SDS011;2730;51.512;7.504;2023-03-01T04:03:13;11.82;;;7.35;;
5414;SDS011;2730;51.512;7.504;2023-03-01T04:05:41;13.23;;;6.70;;
5414;SDS011;2730;51.512;7.504;2023-03-01T04:08:09;17.35;;;7.35;;
5414;SDS011;2730;51.512;7.504;2023-03-01T04:10:37;13.25;;;7.70;;
5414;SDS011;2730;51.512;7.504;2023-03-01T04:13:06;15.88;;;7.40;;
5414;SDS011;2730;51.512;7.504;2023-03-01T04:15:35;14.18;;;7.65;;
5414;SDS011;2730;51.512;7.504;2023-03-01T04:18:02;22.33;;;7.32;;
5414;SDS011;2730;51.512;7.504;2023-03-01T04:20:31;15.63;;;7.60;;
5414;SDS011;2730;51.512;7.504;2023-03-01T04:23:00;12.38;;;7.05;;
5414;SDS011;2730;51.512;7.504;2023-03-01T04:25:36;14.90;;;6.57;;
5414;SDS011;2730;51.512;7.504;2023-03-01T04:28:04;14.77;;;6.65;;
5414;SDS011;2730;51.512;7.504;2023-03-01T04:30:31;11.52;;;6.30;;
5414;SDS011;2730;51.512;7.504;2023-03-01T04:33:00;14.93;;;7.47;;
5414;SDS011;2730;51.512;7.504;2023-03-01T04:35:28;13.25;;;7.63;;
5414;SDS011;2730;51.512;7.504;2023-03-01T04:37:55;11.13;;;7.13;;
5414;SDS011;2730;51.512;7.504;2023-03-01T04:40:22;16.90;;;7.82;;
5414;SDS011;2730;51.512;7.504;2023-03-01T04:42:50;16.60;;;8.55;;
5414;SDS011;2730;51.512;7.504;2023-03-01T04:45:17;15.20;;;8.55;;
5414;SDS011;2730;51.512;7.504;2023-03-01T04:47:44;17.42;;;8.00;;
5414;SDS011;2730;51.512;7.504;2023-03-01T04:50:13;17.80;;;8.23;;
5414;SDS011;2730;51.512;7.504;2023-03-01T04:52:41;19.55;;;8.15;;
5414;SDS011;2730;51.512;7.504;2023-03-01T04:55:08;15.70;;;7.45;;
5414;SDS011;2730;51.512;7.504;2023-03-01T04:57:36;14.15;;;7.07;;
5414;SDS011;2730;51.512;7.504;2023-03-01T05:00:05;16.88;;;8.20;;
5414;SDS011;2730;51.512;7.504;2023-03-01T05:02:45;12.75;;;7.15;;
5414;SDS011;2730;51.512;7.504;2023-03-01T05:05:14;13.07;;;7.43;;
5414;SDS011;2730;51.512;7.504;2023-03-01T05:07:40;12.65;;;7.72;;
5414;SDS011;2730;51.512;7.504;2023-03-01T05:10:08;15.60;;;8.05;;
5414;SDS011;2730;51.512;7.504;2023-03-01T05:12:35;18.92;;;7.53;;
5414;SDS011;2730;51.512;7.504;2023-03-01T05:15:05;16.63;;;7.00;;
5414;SDS011;2730;51.512;7.504;2023-03-01T05:17:32;10.10;;;6.75;;
5414;SDS011;2730;51.512;7.504;2023-03-01T05:20:00;12.23;;;6.60;;
5414;SDS011;2730;51.512;7.504;2023-03-01T05:22:30;29.00;;;8.15;;
5414;SDS011;2730;51.512;7.504;2023-03-01T05:24:57;18.40;;;7.70;;
5414;SDS011;2730;51.512;7.504;2023-03-01T05:27:24;17.95;;;8.73;;
5414;SDS011;2730;51.512;7.504;2023-03-01T05:29:51;15.23;;;8.18;;
5414;SDS011;2730;51.512;7.504;2023-03-01T05:32:19;23.63;;;8.30;;
5414;SDS011;2730;51.512;7.504;2023-03-01T05:34:45;16.58;;;8.32;;
5414;SDS011;2730;51.512;7.504;2023-03-01T05:37:12;17.88;;;8.77;;
5414;SDS011;2730;51.512;7.504;2023-03-01T05:39:39;12.57;;;7.80;;
5414;SDS011;2730;51.512;7.504;2023-03-01T05:42:09;17.45;;;8.00;;
5414;SDS011;2730;51.512;7.504;2023-03-01T05:44:36;13.90;;;7.45;;
5414;SDS011;2730;51.512;7.504;2023-03-01T05:47:03;16.48;;;8.45;;
5414;SDS011;2730;51.512;7.504;2023-03-01T05:49:32;17.08;;;8.35;;
5414;SDS011;2730;51.512;7.504;2023-03-01T05:51:59;18.85;;;7.97;;
5414;SDS011;2730;51.512;7.504;2023-03-01T05:54:26;20.05;;;8.40;;
5414;SDS011;2730;51.512;7.504;2023-03-01T05:56:53;23.80;;;8.90;;
5414;SDS011;2730;51.512;7.504;2023-03-01T05:59:19;11.98;;;7.78;;
5414;SDS011;2730;51.512;7.504;2023-03-01T06:01:46;15.48;;;8.07;;
5414;SDS011;2730;51.512;7.504;2023-03-01T06:04:13;16.80;;;7.50;;
5414;SDS011;2730;51.512;7.504;2023-03-01T06:06:41;15.63;;;8.50;;
5414;SDS011;2730;51.512;7.504;2023-03-01T06:09:08;18.52;;;7.43;;
5414;SDS011;2730;51.512;7.504;2023-03-01T06:11:35;16.60;;;8.43;;
5414;SDS011;2730;51.512;7.504;2023-03-01T06:14:02;14.70;;;8.02;;
5414;SDS011;2730;51.512;7.504;2023-03-01T06:16:29;14.43;;;8.90;;
5414;SDS011;2730;51.512;7.504;2023-03-01T06:18:56;14.55;;;7.75;;
5414;SDS011;2730;51.512;7.504;2023-03-01T06:21:23;19.15;;;7.80;;
5414;SDS011;2730;51.512;7.504;2023-03-01T06:23:51;18.10;;;8.18;;
5414;SDS011;2730;51.512;7.504;2023-03-01T06:26:17;17.35;;;10.13;;
5414;SDS011;2730;51.512;7.504;2023-03-01T06:28:44;16.73;;;8.35;;
5414;SDS011;2730;51.512;7.504;2023-03-01T06:31:11;16.02;;;8.10;;
5414;SDS011;2730;51.512;7.504;2023-03-01T06:33:38;14.30;;;7.55;;
5414;SDS011;2730;51.512;7.504;2023-03-01T06:36:05;15.90;;;7.75;;
5414;SDS011;2730;51.512;7.504;2023-03-01T06:38:32;18.27;;;9.32;;
5414;SDS011;2730;51.512;7.504;2023-03-01T06:41:01;15.52;;;8.80;;
5414;SDS011;2730;51.512;7.504;2023-03-01T06:43:27;20.58;;;8.57;;
5414;SDS011;2730;51.512;7.504;2023-03-01T06:45:54;18.08;;;9.35;;
5414;SDS011;2730;51.512;7.504;2023-03-01T06:48:21;16.40;;;8.02;;
5414;SDS011;2730;51.512;7.504;2023-03-01T06:50:48;20.80;;;9.45;;
5414;SDS011;2730;51.512;7.504;2023-03-01T06:53:15;19.77;;;9.52;;
5414;SDS011;2730;51.512;7.504;2023-03-01T06:55:42;18.13;;;9.77;;
5414;SDS011;2730;51.512;7.504;2023-03-01T06:58:10;22.15;;;9.88;;
5414;SDS011;2730;51.512;7.504;2023-03-01T07:00:37;16.80;;;8.50;;
5414;SDS011;2730;51.512;7.504;2023-03-01T07:03:05;15.57;;;8.55;;
5414;SDS011;2730;51.512;7.504;2023-03-01T07:05:32;16.17;;;9.85;;
5414;SDS011;2730;51.512;7.504;2023-03-01T07:07:59;17.08;;;9.27;;
5414;SDS011;2730;51.512;7.504;2023-03-01T07:10:26;15.27;;;9.25;;
5414;SDS011;2730;51.512;7.504;2023-03-01T07:12:56;18.40;;;8.68;;
5414;SDS011;2730;51.512;7.504;2023-03-01T07:15:25;23.80;;;9.95;;
5414;SDS011;2730;51.512;7.504;2023-03-01T07:17:52;21.85;;;9.10;;
5414;SDS011;2730;51.512;7.504;2023-03-01T07:20:19;25.63;;;8.73;;
5414;SDS011;2730;51.512;7.504;2023-03-01T07:22:49;16.35;;;9.05;;
5414;SDS011;2730;51.512;7.504;2023-03-01T07:25:16;16.52;;;8.80;;
5414;SDS011;2730;51.512;7.504;2023-03-01T07:27:43;18.80;;;8.88;;
5414;SDS011;2730;51.512;7.504;2023-03-01T07:30:10;18.45;;;9.60;;
5414;SDS011;2730;51.512;7.504;2023-03-01T07:32:39;18.20;;;9.30;;
5414;SDS011;2730;51.512;7.504;2023-03-01T07:35:06;14.40;;;8.23;;
5414;SDS011;2730;51.512;7.504;2023-03-01T07:37:33;23.67;;;10.05;;
5414;SDS011;2730;51.512;7.504;2023-03-01T07:40:00;19.95;;;9.63;;
5414;SDS011;2730;51.512;7.504;2023-03-01T07:42:26;23.73;;;9.38;;
5414;SDS011;2730;51.512;7.504;2023-03-01T07:44:53;20.45;;;9.65;;
5414;SDS011;2730;51.512;7.504;2023-03-01T07:47:20;23.27;;;10.23;;
5414;SDS011;2730;51.512;7.504;2023-03-01T07:49:48;19.25;;;9.55;;
5414;SDS011;2730;51.512;7.504;2023-03-01T07:52:15;20.95;;;9.57;;
5414;SDS011;2730;51.512;7.504;2023-03-01T07:54:42;23.15;;;9.90;;
5414;SDS011;2730;51.512;7.504;2023-03-01T07:57:10;24.33;;;10.68;;
5414;SDS011;2730;51.512;7.504;2023-03-01T07:59:36;18.95;;;8.85;;
5414;SDS011;2730;51.512;7.504;2023-03-01T08:02:03;16.02;;;9.05;;
5414;SDS011;2730;51.512;7.504;2023-03-01T08:04:30;25.13;;;9.60;;
5414;SDS011;2730;51.512;7.504;2023-03-01T08:06:59;19.45;;;8.82;;
5414;SDS011;2730;51.512;7.504;2023-03-01T08:09:26;16.13;;;8.70;;
5414;SDS011;2730;51.512;7.504;2023-03-01T08:11:53;13.82;;;7.63;;
5414;SDS011;2730;51.512;7.504;2023-03-01T08:14:20;18.15;;;8.65;;
5414;SDS011;2730;51.512;7.504;2023-03-01T08:16:48;16.05;;;8.05;;
5414;SDS011;2730;51.512;7.504;2023-03-01T08:19:15;16.10;;;8.32;;
5414;SDS011;2730;51.512;7.504;2023-03-01T08:21:42;14.82;;;7.85;;
5414;SDS011;2730;51.512;7.504;2023-03-01T08:24:10;16.10;;;8.45;;
5414;SDS011;2730;51.512;7.504;2023-03-01T08:26:37;18.75;;;8.30;;
5414;SDS011;2730;51.512;7.504;2023-03-01T08:29:04;25.58;;;9.90;;
5414;SDS011;2730;51.512;7.504;2023-03-01T08:31:32;16.20;;;8.07;;
5414;SDS011;2730;51.512;7.504;2023-03-01T08:34:02;16.15;;;8.32;;
5414;SDS011;2730;51.512;7.504;2023-03-01T08:36:31;14.25;;;7.80;;
5414;SDS011;2730;51.512;7.504;2023-03-01T08:38:59;15.32;;;6.65;;
5414;SDS011;2730;51.512;7.504;2023-03-01T08:41:27;12.00;;;7.35;;
5414;SDS011;2730;51.512;7.504;2023-03-01T08:43:55;12.68;;;6.88;;
5414;SDS011;2730;51.512;7.504;2023-03-01T08:46:24;12.50;;;6.15;;
5414;SDS011;2730;51.512;7.504;2023-03-01T08:48:52;17.55;;;7.00;;
5414;SDS011;2730;51.512;7.504;2023-03-01T08:51:19;16.25;;;6.22;;
5414;SDS011;2730;51.512;7.504;2023-03-01T08:53:46;15.43;;;7.38;;
5414;SDS011;2730;51.512;7.504;2023-03-01T08:56:14;11.68;;;7.13;;
5414;SDS011;2730;51.512;7.504;2023-03-01T08:58:44;11.55;;;5.05;;
5414;SDS011;2730;51.512;7.504;2023-03-01T09:01:12;13.38;;;5.78;;
5414;SDS011;2730;51.512;7.504;2023-03-01T09:03:41;11.63;;;6.10;;
5414;SDS011;2730;51.512;7.504;2023-03-01T09:06:08;13.20;;;6.35;;
5414;SDS011;2730;51.512;7.504;2023-03-01T09:08:36;7.78;;;5.43;;
5414;SDS011;2730;51.512;7.504;2023-03-01T09:11:03;9.13;;;5.32;;
5414;SDS011;2730;51.512;7.504;2023-03-01T09:13:30;9.85;;;6.57;;
5414;SDS011;2730;51.512;7.504;2023-03-01T09:15:59;17.05;;;5.95;;
5414;SDS011;2730;51.512;7.504;2023-03-01T09:18:27;9.55;;;5.32;;
5414;SDS011;2730;51.512;7.504;2023-03-01T09:21:00;9.13;;;5.90;;
5414;SDS011;2730;51.512;7.504;2023-03-01T09:23:27;7.68;;;5.60;;
5414;SDS011;2730;51.512;7.504;2023-03-01T09:25:54;10.55;;;6.20;;
5414;SDS011;2730;51.512;7.504;2023-03-01T09:28:20;7.32;;;5.47;;
5414;SDS011;2730;51.512;7.504;2023-03-01T09:30:48;7.47;;;5.28;;
5414;SDS011;2730;51.512;7.504;2023-03-01T09:33:16;9.02;;;5.65;;
5414;SDS011;2730;51.512;7.504;2023-03-01T09:35:43;7.03;;;5.10;;
5414;SDS011;2730;51.512;7.504;2023-03-01T09:38:11;9.25;;;5.22;;
5414;SDS011;2730;51.512;7.504;2023-03-01T09:40:41;8.25;;;5.35;;
5414;SDS011;2730;51.512;7.504;2023-03-01T09:43:13;7.78;;;5.35;;
5414;SDS011;2730;51.512;7.504;2023-03-01T09:45:44;10.20;;;6.25;;
5414;SDS011;2730;51.512;7.504;2023-03-01T09:48:15;6.88;;;5.22;;
5414;SDS011;2730;51.512;7.504;2023-03-01T09:50:47;9.50;;;6.10;;
5414;SDS011;2730;51.512;7.504;2023-03-01T09:53:15;8.23;;;5.05;;
5414;SDS011;2730;51.512;7.504;2023-03-01T09:55:44;8.90;;;5.70;;
5414;SDS011;2730;51.512;7.504;2023-03-01T09:58:23;8.15;;;5.10;;
5414;SDS011;2730;51.512;7.504;2023-03-01T10:01:02;12.20;;;5.22;;
5414;SDS011;2730;51.512;7.504;2023-03-01T10:03:39;7.75;;;4.60;;
5414;SDS011;2730;51.512;7.504;2023-03-01T10:06:19;7.47;;;5.00;;
5414;SDS011;2730;51.512;7.504;2023-03-01T10:08:50;10.85;;;5.07;;
5414;SDS011;2730;51.512;7.504;2023-03-01T10:11:22;7.97;;;4.97;;
5414;SDS011;2730;51.512;7.504;2023-03-01T10:13:55;5.55;;;4.30;;
5414;SDS011;2730;51.512;7.504;2023-03-01T10:16:28;9.43;;;4.78;;
5414;SDS011;2730;51.512;7.504;2023-03-01T10:19:09;6.78;;;4.22;;
5414;SDS011;2730;51.512;7.504;2023-03-01T10:21:41;9.00;;;5.70;;
5414;SDS011;2730;51.512;7.504;2023-03-01T10:24:12;8.70;;;4.53;;
5414;SDS011;2730;51.512;7.504;2023-03-01T10:26:46;4.80;;;4.40;;
5414;SDS011;2730;51.512;7.504;2023-03-01T10:29:18;8.43;;;5.45;;
5414;SDS011;2730;51.512;7.504;2023-03-01T10:31:50;9.27;;;4.97;;
5414;SDS011;2730;51.512;7.504;2023-03-01T10:34:21;8.43;;;4.50;;
5414;SDS011;2730;51.512;7.504;2023-03-01T10:36:55;7.88;;;4.88;;
5414;SDS011;2730;51.512;7.504;2023-03-01T10:39:24;9.80;;;5.10;;
5414;SDS011;2730;51.512;7.504;2023-03-01T10:41:54;5.88;;;4.78;;
5414;SDS011;2730;51.512;7.504;2023-03-01T10:44:39;8.43;;;4.93;;
5414;SDS011;2730;51.512;7.504;2023-03-01T10:47:12;8.20;;;5.38;;
5414;SDS011;2730;51.512;7.504;2023-03-01T10:49:53;7.30;;;4.47;;
5414;SDS011;2730;51.512;7.504;2023-03-01T10:52:23;9.07;;;4.57;;
5414;SDS011;2730;51.512;7.504;2023-03-01T10:54:53;9.48;;;5.13;;
5414;SDS011;2730;51.512;7.504;2023-03-01T10:57:27;7.35;;;4.78;;
5414;SDS011;2730;51.512;7.504;2023-03-01T11:00:14;5.95;;;4.20;;
5414;SDS011;2730;51.512;7.504;2023-03-01T11:02:50;10.27;;;5.00;;
5414;SDS011;2730;51.512;7.504;2023-03-01T11:05:30;8.82;;;5.05;;
5414;SDS011;2730;51.512;7.504;2023-03-01T11:07:59;7.30;;;5.10;;
5414;SDS011;2730;51.512;7.504;2023-03-01T11:10:28;8.88;;;4.53;;
5414;SDS011;2730;51.512;7.504;2023-03-01T11:13:05;6.38;;;3.45;;
5414;SDS011;2730;51.512;7.504;2023-03-01T11:15:33;9.15;;;5.25;;
5414;SDS011;2730;51.512;7.504;2023-03-01T11:18:01;10.75;;;5.40;;
5414;SDS011;2730;51.512;7.504;2023-03-01T11:20:31;9.50;;;5.10;;
5414;SDS011;2730;51.512;7.504;2023-03-01T11:23:01;9.00;;;4.85;;
5414;SDS011;2730;51.512;7.504;2023-03-01T11:25:31;9.07;;;5.45;;
5414;SDS011;2730;51.512;7.504;2023-03-01T11:28:01;6.38;;;4.20;;
5414;SDS011;2730;51.512;7.504;2023-03-01T11:30:31;9.23;;;4.63;;
5414;SDS011;2730;51.512;7.504;2023-03-01T11:33:13;10.70;;;5.32;;
5414;SDS011;2730;51.512;7.504;2023-03-01T11:35:46;13.07;;;5.07;;
5414;SDS011;2730;51.512;7.504;2023-03-01T11:38:21;8.15;;;4.53;;
5414;SDS011;2730;51.512;7.504;2023-03-01T11:40:51;7.78;;;4.15;;
5414;SDS011;2730;51.512;7.504;2023-03-01T11:43:26;9.90;;;5.45;;
5414;SDS011;2730;51.512;7.504;2023-03-01T11:49:02;9.65;;;5.88;;
5414;SDS011;2730;51.512;7.504;2023-03-01T11:51:47;8.68;;;4.80;;
5414;SDS011;2730;51.512;7.504;2023-03-01T11:54:24;7.43;;;5.38;;
5414;SDS011;2730;51.512;7.504;2023-03-01T11:56:57;16.75;;;5.22;;
5414;SDS011;2730;51.512;7.504;2023-03-01T11:59:44;8.20;;;4.13;;
5414;SDS011;2730;51.512;7.504;2023-03-01T12:02:42;11.63;;;5.13;;
5414;SDS011;2730;51.512;7.504;2023-03-01T12:05:30;7.13;;;4.10;;
5414;SDS011;2730;51.512;7.504;2023-03-01T12:08:30;9.75;;;5.05;;
5414;SDS011;2730;51.512;7.504;2023-03-01T12:11:03;11.80;;;6.35;;
5414;SDS011;2730;51.512;7.504;2023-03-01T12:13:53;9.10;;;5.30;;
5414;SDS011;2730;51.512;7.504;2023-03-01T12:19:29;6.10;;;4.85;;
5414;SDS011;2730;51.512;7.504;2023-03-01T12:22:16;8.63;;;4.30;;
5414;SDS011;2730;51.512;7.504;2023-03-01T12:24:58;6.22;;;4.25;;
5414;SDS011;2730;51.512;7.504;2023-03-01T12:30:45;10.63;;;6.03;;
5414;SDS011;2730;51.512;7.504;2023-03-01T12:33:26;10.73;;;5.72;;
5414;SDS011;2730;51.512;7.504;2023-03-01T12:36:08;6.32;;;4.93;;
5414;SDS011;2730;51.512;7.504;2023-03-01T12:38:42;9.00;;;5.05;;
5414;SDS011;2730;51.512;7.504;2023-03-01T12:41:20;10.30;;;5.10;;
5414;SDS011;2730;51.512;7.504;2023-03-01T12:44:30;6.60;;;4.43;;
5414;SDS011;2730;51.512;7.504;2023-03-01T12:47:07;8.85;;;5.10;;
5414;SDS011;2730;51.512;7.504;2023-03-01T12:49:47;5.05;;;4.28;;
5414;SDS011;2730;51.512;7.504;2023-03-01T12:52:18;10.60;;;4.80;;
5414;SDS011;2730;51.512;7.504;2023-03-01T12:54:49;7.30;;;5.03;;
5414;SDS011;2730;51.512;7.504;2023-03-01T12:57:23;10.75;;;5.50;;
5414;SDS011;2730;51.512;7.504;2023-03-01T13:00:00;7.43;;;5.00;;
5414;SDS011;2730;51.512;7.504;2023-03-01T13:02:37;9.10;;;4.72;;
5414;SDS011;2730;51.512;7.504;2023-03-01T13:05:18;9.07;;;5.07;;
5414;SDS011;2730;51.512;7.504;2023-03-01T13:07:53;10.35;;;5.20;;
5414;SDS011;2730;51.512;7.504;2023-03-01T13:10:29;14.63;;;5.15;;
5414;SDS011;2730;51.512;7.504;2023-03-01T13:13:07;14.70;;;5.18;;
5414;SDS011;2730;51.512;7.504;2023-03-01T13:15:40;9.98;;;5.65;;
5414;SDS011;2730;51.512;7.504;2023-03-01T13:18:29;6.50;;;5.10;;
5414;SDS011;2730;51.512;7.504;2023-03-01T13:20:58;7.70;;;4.97;;
5414;SDS011;2730;51.512;7.504;2023-03-01T13:23:28;10.52;;;4.30;;
5414;SDS011;2730;51.512;7.504;2023-03-01T13:26:02;7.97;;;5.35;;
5414;SDS011;2730;51.512;7.504;2023-03-01T13:28:40;8.10;;;5.43;;
5414;SDS011;2730;51.512;7.504;2023-03-01T13:34:39;6.25;;;4.28;;
5414;SDS011;2730;51.512;7.504;2023-03-01T13:37:21;13.02;;;4.20;;
5414;SDS011;2730;51.512;7.504;2023-03-01T13:39:51;12.07;;;5.38;;
5414;SDS011;2730;51.512;7.504;2023-03-01T13:45:16;7.43;;;4.70;;
5414;SDS011;2730;51.512;7.504;2023-03-01T13:47:49;9.40;;;5.22;;
5414;SDS011;2730;51.512;7.504;2023-03-01T13:50:20;7.35;;;4.30;;
5414;SDS011;2730;51.512;7.504;2023-03-01T13:52:52;8.65;;;4.25;;
5414;SDS011;2730;51.512;7.504;2023-03-01T13:55:23;7.18;;;4.63;;
5414;SDS011;2730;51.512;7.504;2023-03-01T13:57:53;7.38;;;4.40;;
5414;SDS011;2730;51.512;7.504;2023-03-01T14:00:34;9.68;;;5.20;;
5414;SDS011;2730;51.512;7.504;2023-03-01T14:03:09;10.40;;;4.75;;
5414;SDS011;2730;51.512;7.504;2023-03-01T14:05:38;6.68;;;4.45;;
5414;SDS011;2730;51.512;7.504;2023-03-01T14:08:18;9.38;;;4.65;;
5414;SDS011;2730;51.512;7.504;2023-03-01T14:10:53;12.98;;;5.18;;
5414;SDS011;2730;51.512;7.504;2023-03-01T14:13:28;9.57;;;4.45;;
5414;SDS011;2730;51.512;7.504;2023-03-01T14:16:10;8.68;;;4.20;;
5414;SDS011;2730;51.512;7.504;2023-03-01T14:18:50;7.45;;;5.43;;
5414;SDS011;2730;51.512;7.504;2023-03-01T14:21:24;5.22;;;4.20;;
5414;SDS011;2730;51.512;7.504;2023-03-01T14:23:52;4.88;;;4.22;;
5414;SDS011;2730;51.512;7.504;2023-03-01T14:26:20;7.35;;;4.55;;
5414;SDS011;2730;51.512;7.504;2023-03-01T14:28:48;5.05;;;3.63;;
5414;SDS011;2730;51.512;7.504;2023-03-01T14:31:31;7.05;;;4.28;;
5414;SDS011;2730;51.512;7.504;2023-03-01T14:34:00;5.80;;;4.20;;
5414;SDS011;2730;51.512;7.504;2023-03-01T14:36:28;6.93;;;4.13;;
5414;SDS011;2730;51.512;7.504;2023-03-01T14:38:56;5.20;;;4.07;;
5414;SDS011;2730;51.512;7.504;2023-03-01T14:41:29;5.50;;;3.65;;
5414;SDS011;2730;51.512;7.504;2023-03-01T14:43:59;9.13;;;3.67;;
5414;SDS011;2730;51.512;7.504;2023-03-01T14:46:30;8.30;;;3.88;;
5414;SDS011;2730;51.512;7.504;2023-03-01T14:49:01;10.73;;;5.20;;
5414;SDS011;2730;51.512;7.504;2023-03-01T14:51:30;9.43;;;4.95;;
5414;SDS011;2730;51.512;7.504;2023-03-01T14:54:00;4.43;;;4.03;;
5414;SDS011;2730;51.512;7.504;2023-03-01T14:56:27;7.32;;;4.05;;
5414;SDS011;2730;51.512;7.504;2023-03-01T14:59:10;6.07;;;3.83;;
5414;SDS011;2730;51.512;7.504;2023-03-01T15:01:39;6.05;;;4.35;;
5414;SDS011;2730;51.512;7.504;2023-03-01T15:04:06;3.25;;;2.85;;
5414;SDS011;2730;51.512;7.504;2023-03-01T15:06:38;6.28;;;3.80;;
5414;SDS011;2730;51.512;7.504;2023-03-01T15:09:06;3.78;;;3.20;;
5414;SDS011;2730;51.512;7.504;2023-03-01T15:11:38;4.97;;;3.00;;
5414;SDS011;2730;51.512;7.504;2023-03-01T15:16:55;7.93;;;3.55;;
5414;SDS011;2730;51.512;7.504;2023-03-01T15:19:23;6.25;;;4.38;;
5414;SDS011;2730;51.512;7.504;2023-03-01T15:21:54;5.35;;;4.10;;
5414;SDS011;2730;51.512;7.504;2023-03-01T15:24:23;6.35;;;3.60;;
5414;SDS011;2730;51.512;7.504;2023-03-01T15:26:53;7.88;;;4.18;;
5414;SDS011;2730;51.512;7.504;2023-03-01T15:29:23;8.43;;;4.18;;
5414;SDS011;2730;51.512;7.504;2023-03-01T15:31:56;8.25;;;4.30;;
5414;SDS011;2730;51.512;7.504;2023-03-01T15:34:25;6.72;;;4.18;;
5414;SDS011;2730;51.512;7.504;2023-03-01T15:36:55;7.50;;;4.80;;
5414;SDS011;2730;51.512;7.504;2023-03-01T15:39:31;9.30;;;5.43;;
5414;SDS011;2730;51.512;7.504;2023-03-01T15:42:03;7.45;;;4.28;;
5414;SDS011;2730;51.512;7.504;2023-03-01T15:44:32;6.10;;;4.03;;